Assembly Point, New York
Current Conditions -  °F | °C
As of 8:10 AM on Friday 24 Oct 2014 (Local Time) from KGFL Reporting Station
Light Rain Light Rain  
Wind Chill: 42°   Ceiling: 400
Heat Index: 44°   Visibility: 2mi
Dew Point: 42°   Wind: 5mph
Humidity: 93%   Direction: 70°ENE
Pressure: 29.85"   Gusts: NA
Location:  43.4218°N, 73.7084°W
Report Text: KGFL 241210Z AUTO 07004KT 2SM -RA BR OVC004 07/06 A2985 RMK AO2 RAE1154B05 P0000 T00670056
Loading
Personal Weather Stations






























Interactive Weather Map New forecast layout! Learn more

10-Day Weather Forecast

Advertisements
Track Severe Weather on mobile